sensor_id;sensor_type;location;lat;lon;timestamp;temperature;humidity
36212;DHT22;22247;48.586;13.492;2022-08-02T00:00:15;17.20;99.90
36212;DHT22;22247;48.586;13.492;2022-08-02T00:02:42;17.50;99.90
36212;DHT22;22247;48.586;13.492;2022-08-02T00:05:08;17.50;99.90
36212;DHT22;22247;48.586;13.492;2022-08-02T00:07:37;17.60;99.90
36212;DHT22;22247;48.586;13.492;2022-08-02T00:10:06;17.40;99.90
36212;DHT22;22247;48.586;13.492;2022-08-02T00:12:35;17.50;99.90
36212;DHT22;22247;48.586;13.492;2022-08-02T00:15:01;17.80;99.90
36212;DHT22;22247;48.586;13.492;2022-08-02T00:17:29;17.50;99.90
36212;DHT22;22247;48.586;13.492;2022-08-02T00:24:50;17.70;99.90
36212;DHT22;22247;48.586;13.492;2022-08-02T00:27:20;17.50;99.90
36212;DHT22;22247;48.586;13.492;2022-08-02T00:29:45;17.50;99.90
36212;DHT22;22247;48.586;13.492;2022-08-02T00:32:16;17.40;99.90
36212;DHT22;22247;48.586;13.492;2022-08-02T00:34:44;17.50;99.90
36212;DHT22;22247;48.586;13.492;2022-08-02T00:42:07;17.30;99.90
36212;DHT22;22247;48.586;13.492;2022-08-02T00:46:59;17.30;99.90
36212;DHT22;22247;48.586;13.492;2022-08-02T00:54:18;17.30;99.90
36212;DHT22;22247;48.586;13.492;2022-08-02T01:04:11;17.40;99.90
36212;DHT22;22247;48.586;13.492;2022-08-02T01:06:41;17.50;99.90
36212;DHT22;22247;48.586;13.492;2022-08-02T01:14:08;17.60;99.90
36212;DHT22;22247;48.586;13.492;2022-08-02T01:16:47;17.40;99.90
36212;DHT22;22247;48.586;13.492;2022-08-02T01:19:50;17.40;99.90
36212;DHT22;22247;48.586;13.492;2022-08-02T01:30:42;17.40;99.90
36212;DHT22;22247;48.586;13.492;2022-08-02T01:33:11;17.40;99.90
36212;DHT22;22247;48.586;13.492;2022-08-02T01:35:44;17.50;99.90
36212;DHT22;22247;48.586;13.492;2022-08-02T01:38:17;17.70;99.90
36212;DHT22;22247;48.586;13.492;2022-08-02T01:40:44;17.50;99.90
36212;DHT22;22247;48.586;13.492;2022-08-02T01:43:14;17.40;99.90
36212;DHT22;22247;48.586;13.492;2022-08-02T01:45:42;17.40;99.90
36212;DHT22;22247;48.586;13.492;2022-08-02T01:48:11;17.30;99.90
36212;DHT22;22247;48.586;13.492;2022-08-02T01:50:37;17.40;99.90
36212;DHT22;22247;48.586;13.492;2022-08-02T01:53:08;17.40;99.90
36212;DHT22;22247;48.586;13.492;2022-08-02T01:55:42;17.30;99.90
36212;DHT22;22247;48.586;13.492;2022-08-02T01:58:09;17.30;99.90
36212;DHT22;22247;48.586;13.492;2022-08-02T02:00:39;17.30;99.90
36212;DHT22;22247;48.586;13.492;2022-08-02T02:03:09;17.20;99.90
36212;DHT22;22247;48.586;13.492;2022-08-02T02:05:39;17.40;99.90
36212;DHT22;22247;48.586;13.492;2022-08-02T02:08:09;17.90;99.90
36212;DHT22;22247;48.586;13.492;2022-08-02T02:10:38;17.60;99.90
36212;DHT22;22247;48.586;13.492;2022-08-02T02:13:11;17.60;99.90
36212;DHT22;22247;48.586;13.492;2022-08-02T02:15:43;17.50;99.90
36212;DHT22;22247;48.586;13.492;2022-08-02T02:18:13;17.50;99.90
36212;DHT22;22247;48.586;13.492;2022-08-02T02:23:10;17.50;99.90
36212;DHT22;22247;48.586;13.492;2022-08-02T02:25:40;17.40;99.90
36212;DHT22;22247;48.586;13.492;2022-08-02T02:28:20;17.50;99.90
36212;DHT22;22247;48.586;13.492;2022-08-02T02:30:51;17.30;99.90
36212;DHT22;22247;48.586;13.492;2022-08-02T02:33:21;17.30;99.90
36212;DHT22;22247;48.586;13.492;2022-08-02T02:35:51;17.30;99.90
36212;DHT22;22247;48.586;13.492;2022-08-02T02:38:19;17.10;99.90
36212;DHT22;22247;48.586;13.492;2022-08-02T02:45:41;16.90;99.90
36212;DHT22;22247;48.586;13.492;2022-08-02T02:48:10;16.90;99.90
36212;DHT22;22247;48.586;13.492;2022-08-02T02:50:40;17.10;99.90
36212;DHT22;22247;48.586;13.492;2022-08-02T02:53:06;16.80;99.90
36212;DHT22;22247;48.586;13.492;2022-08-02T02:55:35;16.90;99.90
36212;DHT22;22247;48.586;13.492;2022-08-02T02:58:03;16.80;99.90
36212;DHT22;22247;48.586;13.492;2022-08-02T03:00:31;16.80;99.90
36212;DHT22;22247;48.586;13.492;2022-08-02T03:03:18;16.70;99.90
36212;DHT22;22247;48.586;13.492;2022-08-02T03:10:38;16.60;99.90
36212;DHT22;22247;48.586;13.492;2022-08-02T03:13:04;16.70;99.90
36212;DHT22;22247;48.586;13.492;2022-08-02T03:15:31;16.60;99.90
36212;DHT22;22247;48.586;13.492;2022-08-02T03:25:19;16.50;99.90
36212;DHT22;22247;48.586;13.492;2022-08-02T03:27:45;16.40;99.90
36212;DHT22;22247;48.586;13.492;2022-08-02T03:30:12;16.40;99.90
36212;DHT22;22247;48.586;13.492;2022-08-02T03:32:43;16.50;99.90
36212;DHT22;22247;48.586;13.492;2022-08-02T03:35:10;16.50;99.90
36212;DHT22;22247;48.586;13.492;2022-08-02T03:37:41;16.30;99.90
36212;DHT22;22247;48.586;13.492;2022-08-02T03:40:11;16.30;99.90
36212;DHT22;22247;48.586;13.492;2022-08-02T03:42:40;16.30;99.90
36212;DHT22;22247;48.586;13.492;2022-08-02T03:45:08;16.30;99.90
36212;DHT22;22247;48.586;13.492;2022-08-02T03:47:36;16.20;99.90
36212;DHT22;22247;48.586;13.492;2022-08-02T03:50:04;16.30;99.90
36212;DHT22;22247;48.586;13.492;2022-08-02T03:52:31;16.30;99.90
36212;DHT22;22247;48.586;13.492;2022-08-02T03:55:02;16.70;99.90
36212;DHT22;22247;48.586;13.492;2022-08-02T03:57:28;16.20;99.90
36212;DHT22;22247;48.586;13.492;2022-08-02T04:02:20;16.30;99.90
36212;DHT22;22247;48.586;13.492;2022-08-02T04:09:48;16.40;99.90
36212;DHT22;22247;48.586;13.492;2022-08-02T04:12:13;16.40;99.90
36212;DHT22;22247;48.586;13.492;2022-08-02T04:14:41;16.80;99.90
36212;DHT22;22247;48.586;13.492;2022-08-02T04:17:11;16.70;99.90
36212;DHT22;22247;48.586;13.492;2022-08-02T04:19:44;16.80;99.90
36212;DHT22;22247;48.586;13.492;2022-08-02T04:22:22;16.90;99.90
36212;DHT22;22247;48.586;13.492;2022-08-02T04:24:53;16.90;99.90
36212;DHT22;22247;48.586;13.492;2022-08-02T04:27:23;17.10;99.90
36212;DHT22;22247;48.586;13.492;2022-08-02T04:29:49;17.40;99.90
36212;DHT22;22247;48.586;13.492;2022-08-02T04:32:18;17.10;99.90
36212;DHT22;22247;48.586;13.492;2022-08-02T04:34:47;17.20;99.90
36212;DHT22;22247;48.586;13.492;2022-08-02T04:39:46;17.00;99.90
36212;DHT22;22247;48.586;13.492;2022-08-02T04:42:22;17.10;99.90
36212;DHT22;22247;48.586;13.492;2022-08-02T04:44:49;17.10;99.90
36212;DHT22;22247;48.586;13.492;2022-08-02T04:47:23;17.50;99.90
36212;DHT22;22247;48.586;13.492;2022-08-02T04:49:49;17.10;99.90
36212;DHT22;22247;48.586;13.492;2022-08-02T04:54:43;17.10;99.90
36212;DHT22;22247;48.586;13.492;2022-08-02T04:59:58;17.50;99.90
36212;DHT22;22247;48.586;13.492;2022-08-02T05:02:26;17.50;99.90
36212;DHT22;22247;48.586;13.492;2022-08-02T05:04:51;17.50;99.90
36212;DHT22;22247;48.586;13.492;2022-08-02T05:07:17;17.50;99.90
36212;DHT22;22247;48.586;13.492;2022-08-02T05:09:43;17.80;99.90
36212;DHT22;22247;48.586;13.492;2022-08-02T05:14:36;17.90;99.90
36212;DHT22;22247;48.586;13.492;2022-08-02T05:17:02;17.80;99.90
36212;DHT22;22247;48.586;13.492;2022-08-02T05:19:28;18.20;99.90
36212;DHT22;22247;48.586;13.492;2022-08-02T05:24:20;18.30;99.90
36212;DHT22;22247;48.586;13.492;2022-08-02T05:26:45;18.80;99.90
36212;DHT22;22247;48.586;13.492;2022-08-02T05:36:31;19.50;99.90
36212;DHT22;22247;48.586;13.492;2022-08-02T05:43:52;19.40;99.90
36212;DHT22;22247;48.586;13.492;2022-08-02T05:48:44;19.80;99.90
36212;DHT22;22247;48.586;13.492;2022-08-02T05:51:11;19.60;99.90
36212;DHT22;22247;48.586;13.492;2022-08-02T05:57:36;19.70;99.90
36212;DHT22;22247;48.586;13.492;2022-08-02T06:05:14;19.10;99.90
36212;DHT22;22247;48.586;13.492;2022-08-02T06:07:44;19.30;99.90
36212;DHT22;22247;48.586;13.492;2022-08-02T06:10:14;19.40;99.90
36212;DHT22;22247;48.586;13.492;2022-08-02T06:13:09;19.70;99.90
36212;DHT22;22247;48.586;13.492;2022-08-02T06:15:39;20.10;99.90
36212;DHT22;22247;48.586;13.492;2022-08-02T06:18:06;20.30;99.90
36212;DHT22;22247;48.586;13.492;2022-08-02T06:23:07;21.00;99.90
36212;DHT22;22247;48.586;13.492;2022-08-02T06:25:52;20.90;99.90
36212;DHT22;22247;48.586;13.492;2022-08-02T06:28:18;20.80;99.90
36212;DHT22;22247;48.586;13.492;2022-08-02T07:28:02;23.60;99.90
36212;DHT22;22247;48.586;13.492;2022-08-02T07:30:28;23.60;99.90
36212;DHT22;22247;48.586;13.492;2022-08-02T07:42:43;23.20;99.90
36212;DHT22;22247;48.586;13.492;2022-08-02T07:45:09;23.70;99.90
36212;DHT22;22247;48.586;13.492;2022-08-02T07:50:06;24.10;99.90
36212;DHT22;22247;48.586;13.492;2022-08-02T07:52:34;23.90;99.90
36212;DHT22;22247;48.586;13.492;2022-08-02T07:57:33;23.90;99.90
36212;DHT22;22247;48.586;13.492;2022-08-02T07:59:59;24.30;99.90
36212;DHT22;22247;48.586;13.492;2022-08-02T08:04:52;23.70;99.90
36212;DHT22;22247;48.586;13.492;2022-08-02T08:09:44;24.30;99.90
36212;DHT22;22247;48.586;13.492;2022-08-02T08:14:38;23.50;99.90
36212;DHT22;22247;48.586;13.492;2022-08-02T08:17:05;23.40;99.90
36212;DHT22;22247;48.586;13.492;2022-08-02T08:22:00;23.40;99.90
36212;DHT22;22247;48.586;13.492;2022-08-02T08:24:28;22.40;99.90
36212;DHT22;22247;48.586;13.492;2022-08-02T09:11:11;23.70;99.90
36212;DHT22;22247;48.586;13.492;2022-08-02T09:14:09;23.30;99.90
36212;DHT22;22247;48.586;13.492;2022-08-02T09:50:43;25.70;99.90
36212;DHT22;22247;48.586;13.492;2022-08-02T10:00:27;26.40;99.90
36212;DHT22;22247;48.586;13.492;2022-08-02T10:03:38;26.50;99.90
36212;DHT22;22247;48.586;13.492;2022-08-02T10:07:00;26.10;99.90
36212;DHT22;22247;48.586;13.492;2022-08-02T10:23:15;25.30;99.90
36212;DHT22;22247;48.586;13.492;2022-08-02T10:32:35;25.10;99.90
36212;DHT22;22247;48.586;13.492;2022-08-02T10:35:08;25.30;99.90
36212;DHT22;22247;48.586;13.492;2022-08-02T10:37:36;25.40;99.90
36212;DHT22;22247;48.586;13.492;2022-08-02T10:40:04;25.20;99.90
36212;DHT22;22247;48.586;13.492;2022-08-02T10:42:47;25.30;99.90
36212;DHT22;22247;48.586;13.492;2022-08-02T10:45:16;26.00;99.90
36212;DHT22;22247;48.586;13.492;2022-08-02T10:48:01;26.20;99.90
36212;DHT22;22247;48.586;13.492;2022-08-02T10:50:54;25.80;99.90
36212;DHT22;22247;48.586;13.492;2022-08-02T10:53:35;25.50;99.90
36212;DHT22;22247;48.586;13.492;2022-08-02T10:56:03;26.20;99.90
36212;DHT22;22247;48.586;13.492;2022-08-02T10:58:31;26.00;99.90
36212;DHT22;22247;48.586;13.492;2022-08-02T11:01:29;25.90;99.90
36212;DHT22;22247;48.586;13.492;2022-08-02T11:03:58;25.80;99.90
36212;DHT22;22247;48.586;13.492;2022-08-02T11:06:24;25.60;99.90
36212;DHT22;22247;48.586;13.492;2022-08-02T11:09:29;25.80;99.90
36212;DHT22;22247;48.586;13.492;2022-08-02T11:12:08;26.60;99.90
36212;DHT22;22247;48.586;13.492;2022-08-02T11:20:13;26.30;99.90
36212;DHT22;22247;48.586;13.492;2022-08-02T11:27:18;26.90;99.90
36212;DHT22;22247;48.586;13.492;2022-08-02T11:29:47;26.90;99.90
36212;DHT22;22247;48.586;13.492;2022-08-02T11:32:22;26.40;99.90
36212;DHT22;22247;48.586;13.492;2022-08-02T11:34:52;26.60;99.90
36212;DHT22;22247;48.586;13.492;2022-08-02T11:37:37;26.60;99.90
36212;DHT22;22247;48.586;13.492;2022-08-02T11:40:11;26.80;99.90
36212;DHT22;22247;48.586;13.492;2022-08-02T11:42:39;27.10;98.80
36212;DHT22;22247;48.586;13.492;2022-08-02T11:45:10;26.90;99.90
36212;DHT22;22247;48.586;13.492;2022-08-02T11:47:47;27.50;99.90
36212;DHT22;22247;48.586;13.492;2022-08-02T11:50:13;26.80;98.80
36212;DHT22;22247;48.586;13.492;2022-08-02T11:52:45;27.00;99.90
36212;DHT22;22247;48.586;13.492;2022-08-02T11:55:11;27.50;99.90
36212;DHT22;22247;48.586;13.492;2022-08-02T11:57:39;26.50;99.90
36212;DHT22;22247;48.586;13.492;2022-08-02T12:00:14;26.70;99.90
36212;DHT22;22247;48.586;13.492;2022-08-02T12:02:45;26.70;99.90
36212;DHT22;22247;48.586;13.492;2022-08-02T12:05:16;28.00;99.90
36212;DHT22;22247;48.586;13.492;2022-08-02T12:07:44;28.00;99.90
36212;DHT22;22247;48.586;13.492;2022-08-02T12:10:16;27.40;99.90
36212;DHT22;22247;48.586;13.492;2022-08-02T12:12:49;27.30;98.90
36212;DHT22;22247;48.586;13.492;2022-08-02T12:15:36;26.40;99.90
36212;DHT22;22247;48.586;13.492;2022-08-02T12:18:17;26.80;97.40
36212;DHT22;22247;48.586;13.492;2022-08-02T12:21:20;27.20;99.90
36212;DHT22;22247;48.586;13.492;2022-08-02T12:23:49;26.90;99.90
36212;DHT22;22247;48.586;13.492;2022-08-02T12:26:15;27.30;97.70
36212;DHT22;22247;48.586;13.492;2022-08-02T12:28:41;28.30;99.90
36212;DHT22;22247;48.586;13.492;2022-08-02T12:31:09;28.10;96.30
36212;DHT22;22247;48.586;13.492;2022-08-02T12:33:53;27.70;96.30
36212;DHT22;22247;48.586;13.492;2022-08-02T12:36:22;27.50;94.80
36212;DHT22;22247;48.586;13.492;2022-08-02T12:38:57;27.20;99.90
36212;DHT22;22247;48.586;13.492;2022-08-02T12:41:28;26.90;99.90
36212;DHT22;22247;48.586;13.492;2022-08-02T12:43:55;27.50;94.20
36212;DHT22;22247;48.586;13.492;2022-08-02T12:46:27;27.20;99.90
36212;DHT22;22247;48.586;13.492;2022-08-02T12:48:54;27.20;94.50
36212;DHT22;22247;48.586;13.492;2022-08-02T12:53:52;27.20;99.90
36212;DHT22;22247;48.586;13.492;2022-08-02T12:56:32;27.40;94.50
36212;DHT22;22247;48.586;13.492;2022-08-02T12:59:01;27.60;95.00
36212;DHT22;22247;48.586;13.492;2022-08-02T13:01:27;27.80;99.90
36212;DHT22;22247;48.586;13.492;2022-08-02T13:03:56;28.00;93.80
36212;DHT22;22247;48.586;13.492;2022-08-02T13:06:23;27.60;99.90
36212;DHT22;22247;48.586;13.492;2022-08-02T13:08:51;27.90;99.90
36212;DHT22;22247;48.586;13.492;2022-08-02T13:11:21;27.90;93.00
36212;DHT22;22247;48.586;13.492;2022-08-02T13:13:49;28.00;93.90
36212;DHT22;22247;48.586;13.492;2022-08-02T13:16:15;27.80;93.50
36212;DHT22;22247;48.586;13.492;2022-08-02T13:18:41;27.30;99.90
36212;DHT22;22247;48.586;13.492;2022-08-02T13:21:10;27.90;93.20
36212;DHT22;22247;48.586;13.492;2022-08-02T13:23:38;28.00;99.90
36212;DHT22;22247;48.586;13.492;2022-08-02T13:26:04;28.40;92.70
36212;DHT22;22247;48.586;13.492;2022-08-02T13:30:58;28.40;99.90
36212;DHT22;22247;48.586;13.492;2022-08-02T13:35:52;28.50;99.90
36212;DHT22;22247;48.586;13.492;2022-08-02T13:38:22;28.90;99.90
36212;DHT22;22247;48.586;13.492;2022-08-02T13:46:02;29.80;88.80
36212;DHT22;22247;48.586;13.492;2022-08-02T13:48:33;29.80;96.00
36212;DHT22;22247;48.586;13.492;2022-08-02T13:51:01;30.20;96.70
36212;DHT22;22247;48.586;13.492;2022-08-02T13:53:26;30.50;95.50
36212;DHT22;22247;48.586;13.492;2022-08-02T13:55:54;30.30;86.70
36212;DHT22;22247;48.586;13.492;2022-08-02T14:00:52;29.70;85.70
36212;DHT22;22247;48.586;13.492;2022-08-02T14:03:18;29.20;94.80
36212;DHT22;22247;48.586;13.492;2022-08-02T14:05:46;29.70;97.70
36212;DHT22;22247;48.586;13.492;2022-08-02T14:08:12;30.40;95.00
36212;DHT22;22247;48.586;13.492;2022-08-02T14:10:43;30.50;82.60
36212;DHT22;22247;48.586;13.492;2022-08-02T14:13:09;30.50;82.30
36212;DHT22;22247;48.586;13.492;2022-08-02T14:15:34;29.90;94.10
36212;DHT22;22247;48.586;13.492;2022-08-02T14:20:28;29.60;82.30
36212;DHT22;22247;48.586;13.492;2022-08-02T14:22:54;30.20;79.70
36212;DHT22;22247;48.586;13.492;2022-08-02T14:25:21;30.30;82.40
36212;DHT22;22247;48.586;13.492;2022-08-02T14:27:47;30.40;80.00
36212;DHT22;22247;48.586;13.492;2022-08-02T14:30:15;29.60;81.10
36212;DHT22;22247;48.586;13.492;2022-08-02T14:32:42;30.20;93.50
36212;DHT22;22247;48.586;13.492;2022-08-02T14:35:10;30.50;78.40
36212;DHT22;22247;48.586;13.492;2022-08-02T14:37:37;30.80;80.20
36212;DHT22;22247;48.586;13.492;2022-08-02T14:40:06;32.30;94.70
36212;DHT22;22247;48.586;13.492;2022-08-02T14:42:32;32.40;95.10
36212;DHT22;22247;48.586;13.492;2022-08-02T14:45:00;32.50;93.20
36212;DHT22;22247;48.586;13.492;2022-08-02T14:47:26;32.10;93.60
36212;DHT22;22247;48.586;13.492;2022-08-02T14:49:52;32.20;93.10
36212;DHT22;22247;48.586;13.492;2022-08-02T14:52:20;31.80;92.30
36212;DHT22;22247;48.586;13.492;2022-08-02T14:54:45;32.10;76.00
36212;DHT22;22247;48.586;13.492;2022-08-02T14:57:14;32.00;76.40
36212;DHT22;22247;48.586;13.492;2022-08-02T14:59:39;32.20;78.80
36212;DHT22;22247;48.586;13.492;2022-08-02T15:02:07;32.40;75.40
36212;DHT22;22247;48.586;13.492;2022-08-02T15:04:33;30.80;91.60
36212;DHT22;22247;48.586;13.492;2022-08-02T15:07:01;30.70;77.60
36212;DHT22;22247;48.586;13.492;2022-08-02T15:09:31;30.40;78.70
36212;DHT22;22247;48.586;13.492;2022-08-02T15:11:59;31.30;80.00
36212;DHT22;22247;48.586;13.492;2022-08-02T15:16:51;29.70;78.00
36212;DHT22;22247;48.586;13.492;2022-08-02T15:19:16;30.20;82.40
36212;DHT22;22247;48.586;13.492;2022-08-02T15:21:44;31.10;90.00
36212;DHT22;22247;48.586;13.492;2022-08-02T15:24:12;31.00;91.00
36212;DHT22;22247;48.586;13.492;2022-08-02T15:26:40;31.00;78.20
36212;DHT22;22247;48.586;13.492;2022-08-02T15:29:05;29.70;91.20
36212;DHT22;22247;48.586;13.492;2022-08-02T15:31:34;29.70;91.20
36212;DHT22;22247;48.586;13.492;2022-08-02T15:34:02;30.10;78.70
36212;DHT22;22247;48.586;13.492;2022-08-02T15:36:30;30.10;79.10
36212;DHT22;22247;48.586;13.492;2022-08-02T15:38:58;30.50;76.40
36212;DHT22;22247;48.586;13.492;2022-08-02T15:41:29;31.40;79.20
36212;DHT22;22247;48.586;13.492;2022-08-02T15:43:55;31.80;86.60
36212;DHT22;22247;48.586;13.492;2022-08-02T15:46:23;31.90;72.50
36212;DHT22;22247;48.586;13.492;2022-08-02T15:51:17;30.70;68.40
36212;DHT22;22247;48.586;13.492;2022-08-02T15:58:36;31.80;91.70
36212;DHT22;22247;48.586;13.492;2022-08-02T16:01:04;31.60;69.10
36212;DHT22;22247;48.586;13.492;2022-08-02T16:03:35;31.50;69.70
36212;DHT22;22247;48.586;13.492;2022-08-02T16:06:02;30.90;67.00
36212;DHT22;22247;48.586;13.492;2022-08-02T16:16:14;30.80;92.70
36212;DHT22;22247;48.586;13.492;2022-08-02T16:18:45;31.40;74.50
36212;DHT22;22247;48.586;13.492;2022-08-02T16:21:11;32.00;91.90
36212;DHT22;22247;48.586;13.492;2022-08-02T16:28:31;32.60;92.30
36212;DHT22;22247;48.586;13.492;2022-08-02T16:30:59;32.20;91.80
36212;DHT22;22247;48.586;13.492;2022-08-02T16:35:50;32.80;93.50
36212;DHT22;22247;48.586;13.492;2022-08-02T16:38:16;32.70;89.40
36212;DHT22;22247;48.586;13.492;2022-08-02T16:43:12;32.50;90.30
36212;DHT22;22247;48.586;13.492;2022-08-02T16:45:38;33.00;89.50
36212;DHT22;22247;48.586;13.492;2022-08-02T16:48:06;32.30;89.20
36212;DHT22;22247;48.586;13.492;2022-08-02T16:50:37;32.50;68.40
36212;DHT22;22247;48.586;13.492;2022-08-02T16:53:05;32.90;70.00
36212;DHT22;22247;48.586;13.492;2022-08-02T16:55:33;32.00;91.70
36212;DHT22;22247;48.586;13.492;2022-08-02T17:00:27;31.30;92.50
36212;DHT22;22247;48.586;13.492;2022-08-02T17:02:55;31.50;92.00
36212;DHT22;22247;48.586;13.492;2022-08-02T17:05:21;31.40;92.50
36212;DHT22;22247;48.586;13.492;2022-08-02T17:07:49;31.10;93.10
36212;DHT22;22247;48.586;13.492;2022-08-02T17:12:45;31.30;75.90
36212;DHT22;22247;48.586;13.492;2022-08-02T17:17:40;29.80;93.10
36212;DHT22;22247;48.586;13.492;2022-08-02T17:20:05;30.20;76.80
36212;DHT22;22247;48.586;13.492;2022-08-02T17:22:33;30.80;93.50
36212;DHT22;22247;48.586;13.492;2022-08-02T17:27:29;29.90;94.50
36212;DHT22;22247;48.586;13.492;2022-08-02T17:29:54;30.00;79.90
36212;DHT22;22247;48.586;13.492;2022-08-02T17:32:22;30.10;94.40
36212;DHT22;22247;48.586;13.492;2022-08-02T17:34:50;30.10;94.60
36212;DHT22;22247;48.586;13.492;2022-08-02T17:37:16;30.10;94.50
36212;DHT22;22247;48.586;13.492;2022-08-02T17:39:44;30.30;94.20
36212;DHT22;22247;48.586;13.492;2022-08-02T17:42:10;30.20;94.00
36212;DHT22;22247;48.586;13.492;2022-08-02T17:47:05;29.10;95.30
36212;DHT22;22247;48.586;13.492;2022-08-02T17:52:02;28.50;84.30
36212;DHT22;22247;48.586;13.492;2022-08-02T17:59:26;27.00;92.30
36212;DHT22;22247;48.586;13.492;2022-08-02T18:01:56;26.80;99.90
36212;DHT22;22247;48.586;13.492;2022-08-02T18:04:23;26.30;99.90
36212;DHT22;22247;48.586;13.492;2022-08-02T18:06:57;25.40;96.90
36212;DHT22;22247;48.586;13.492;2022-08-02T18:09:26;24.90;99.90
36212;DHT22;22247;48.586;13.492;2022-08-02T18:11:53;24.70;99.90
36212;DHT22;22247;48.586;13.492;2022-08-02T18:14:22;24.70;99.90
36212;DHT22;22247;48.586;13.492;2022-08-02T18:16:50;24.60;99.90
36212;DHT22;22247;48.586;13.492;2022-08-02T18:19:19;24.40;99.90
36212;DHT22;22247;48.586;13.492;2022-08-02T18:21:45;24.20;99.90
36212;DHT22;22247;48.586;13.492;2022-08-02T18:26:37;23.80;99.90
36212;DHT22;22247;48.586;13.492;2022-08-02T18:31:33;23.60;99.90
36212;DHT22;22247;48.586;13.492;2022-08-02T18:34:02;23.30;99.90
36212;DHT22;22247;48.586;13.492;2022-08-02T18:36:29;23.10;99.90
36212;DHT22;22247;48.586;13.492;2022-08-02T18:38:55;22.70;99.90
36212;DHT22;22247;48.586;13.492;2022-08-02T18:41:21;22.80;99.90
36212;DHT22;22247;48.586;13.492;2022-08-02T18:48:42;22.90;99.90
36212;DHT22;22247;48.586;13.492;2022-08-02T18:51:10;22.20;99.90
36212;DHT22;22247;48.586;13.492;2022-08-02T18:53:37;22.00;99.90
36212;DHT22;22247;48.586;13.492;2022-08-02T18:56:05;22.00;99.90
36212;DHT22;22247;48.586;13.492;2022-08-02T19:15:40;21.20;99.90
36212;DHT22;22247;48.586;13.492;2022-08-02T19:20:35;21.00;99.90
36212;DHT22;22247;48.586;13.492;2022-08-02T19:23:05;21.00;99.90
36212;DHT22;22247;48.586;13.492;2022-08-02T19:25:36;20.70;99.90
36212;DHT22;22247;48.586;13.492;2022-08-02T19:28:09;20.80;99.90
36212;DHT22;22247;48.586;13.492;2022-08-02T19:30:37;20.70;99.90
36212;DHT22;22247;48.586;13.492;2022-08-02T19:38:08;20.50;99.90
36212;DHT22;22247;48.586;13.492;2022-08-02T19:45:30;20.20;99.90
36212;DHT22;22247;48.586;13.492;2022-08-02T19:47:59;20.30;99.90
36212;DHT22;22247;48.586;13.492;2022-08-02T19:50:28;20.30;99.90
36212;DHT22;22247;48.586;13.492;2022-08-02T20:02:43;20.10;99.90
36212;DHT22;22247;48.586;13.492;2022-08-02T20:05:15;20.10;99.90
36212;DHT22;22247;48.586;13.492;2022-08-02T20:12:41;20.00;99.90
36212;DHT22;22247;48.586;13.492;2022-08-02T20:15:12;19.90;99.90
36212;DHT22;22247;48.586;13.492;2022-08-02T20:20:08;19.90;99.90
36212;DHT22;22247;48.586;13.492;2022-08-02T20:27:46;19.60;99.90
36212;DHT22;22247;48.586;13.492;2022-08-02T20:35:06;19.50;99.90
36212;DHT22;22247;48.586;13.492;2022-08-02T20:45:01;19.20;99.90
36212;DHT22;22247;48.586;13.492;2022-08-02T21:04:49;19.10;99.90
36212;DHT22;22247;48.586;13.492;2022-08-02T21:09:46;18.90;99.90
36212;DHT22;22247;48.586;13.492;2022-08-02T21:19:33;19.10;99.90
36212;DHT22;22247;48.586;13.492;2022-08-02T21:26:54;18.80;99.90
36212;DHT22;22247;48.586;13.492;2022-08-02T21:29:22;19.10;99.90
36212;DHT22;22247;48.586;13.492;2022-08-02T21:31:50;18.70;99.90
36212;DHT22;22247;48.586;13.492;2022-08-02T21:41:36;18.50;99.90
36212;DHT22;22247;48.586;13.492;2022-08-02T21:44:02;18.80;99.90
36212;DHT22;22247;48.586;13.492;2022-08-02T21:48:57;18.60;99.90
36212;DHT22;22247;48.586;13.492;2022-08-02T21:51:22;18.50;99.90
36212;DHT22;22247;48.586;13.492;2022-08-02T21:58:40;18.20;99.90
36212;DHT22;22247;48.586;13.492;2022-08-02T22:01:06;18.30;99.90
36212;DHT22;22247;48.586;13.492;2022-08-02T22:03:34;18.10;99.90
36212;DHT22;22247;48.586;13.492;2022-08-02T22:06:02;18.10;99.90
36212;DHT22;22247;48.586;13.492;2022-08-02T22:10:54;18.20;99.90
36212;DHT22;22247;48.586;13.492;2022-08-02T22:13:33;18.40;99.90
36212;DHT22;22247;48.586;13.492;2022-08-02T22:16:00;18.10;99.90
36212;DHT22;22247;48.586;13.492;2022-08-02T22:20:54;18.00;99.90
36212;DHT22;22247;48.586;13.492;2022-08-02T22:25:48;17.80;99.90
36212;DHT22;22247;48.586;13.492;2022-08-02T22:28:18;17.70;99.90
36212;DHT22;22247;48.586;13.492;2022-08-02T22:30:47;17.90;99.90
36212;DHT22;22247;48.586;13.492;2022-08-02T22:33:13;17.90;99.90
36212;DHT22;22247;48.586;13.492;2022-08-02T22:40:52;17.70;99.90
36212;DHT22;22247;48.586;13.492;2022-08-02T22:53:03;17.70;99.90
36212;DHT22;22247;48.586;13.492;2022-08-02T22:55:29;17.70;99.90
36212;DHT22;22247;48.586;13.492;2022-08-02T22:57:57;17.60;99.90
36212;DHT22;22247;48.586;13.492;2022-08-02T23:00:24;17.70;99.90
36212;DHT22;22247;48.586;13.492;2022-08-02T23:05:15;17.90;99.90
36212;DHT22;22247;48.586;13.492;2022-08-02T23:25:10;17.30;99.90
36212;DHT22;22247;48.586;13.492;2022-08-02T23:27:38;17.20;99.90
36212;DHT22;22247;48.586;13.492;2022-08-02T23:30:04;17.20;99.90
36212;DHT22;22247;48.586;13.492;2022-08-02T23:34:59;17.20;99.90
36212;DHT22;22247;48.586;13.492;2022-08-02T23:39:55;17.20;99.90
36212;DHT22;22247;48.586;13.492;2022-08-02T23:44:51;17.10;99.90
36212;DHT22;22247;48.586;13.492;2022-08-02T23:59:35;16.80;99.90
